sensor_id;sensor_type;location;lat;lon;timestamp;temperature;humidity
13686;DHT22;6915;48.296;8.874;2023-02-28T00:01:36;-2.90;99.90
13686;DHT22;6915;48.296;8.874;2023-02-28T00:04:06;-2.90;99.90
13686;DHT22;6915;48.296;8.874;2023-02-28T00:06:36;-2.90;99.90
13686;DHT22;6915;48.296;8.874;2023-02-28T00:09:05;-2.90;99.90
13686;DHT22;6915;48.296;8.874;2023-02-28T00:11:34;-2.80;99.90
13686;DHT22;6915;48.296;8.874;2023-02-28T00:14:05;-3.10;99.90
13686;DHT22;6915;48.296;8.874;2023-02-28T00:16:34;-3.10;99.90
13686;DHT22;6915;48.296;8.874;2023-02-28T00:19:03;-3.10;99.90
13686;DHT22;6915;48.296;8.874;2023-02-28T00:21:33;-3.10;99.90
13686;DHT22;6915;48.296;8.874;2023-02-28T00:24:02;-3.10;99.90
13686;DHT22;6915;48.296;8.874;2023-02-28T00:26:31;-3.10;99.90
13686;DHT22;6915;48.296;8.874;2023-02-28T00:29:00;-3.20;99.90
13686;DHT22;6915;48.296;8.874;2023-02-28T00:31:28;-3.20;99.90
13686;DHT22;6915;48.296;8.874;2023-02-28T00:33:57;-3.20;99.90
13686;DHT22;6915;48.296;8.874;2023-02-28T00:36:26;-3.20;99.90
13686;DHT22;6915;48.296;8.874;2023-02-28T00:38:56;-3.20;99.90
13686;DHT22;6915;48.296;8.874;2023-02-28T00:41:25;-3.20;99.90
13686;DHT22;6915;48.296;8.874;2023-02-28T00:43:53;-3.10;99.90
13686;DHT22;6915;48.296;8.874;2023-02-28T00:46:22;-3.10;99.90
13686;DHT22;6915;48.296;8.874;2023-02-28T00:48:50;-3.30;99.90
13686;DHT22;6915;48.296;8.874;2023-02-28T00:51:19;-3.20;99.90
13686;DHT22;6915;48.296;8.874;2023-02-28T00:53:48;-3.20;99.90
13686;DHT22;6915;48.296;8.874;2023-02-28T00:56:18;-3.20;99.90
13686;DHT22;6915;48.296;8.874;2023-02-28T00:58:46;-3.20;99.90
13686;DHT22;6915;48.296;8.874;2023-02-28T01:01:15;-3.20;99.90
13686;DHT22;6915;48.296;8.874;2023-02-28T01:03:44;-3.30;99.90
13686;DHT22;6915;48.296;8.874;2023-02-28T01:06:12;-3.30;99.90
13686;DHT22;6915;48.296;8.874;2023-02-28T01:08:41;-3.30;99.90
13686;DHT22;6915;48.296;8.874;2023-02-28T01:11:12;-3.30;99.90
13686;DHT22;6915;48.296;8.874;2023-02-28T01:13:44;-3.30;99.90
13686;DHT22;6915;48.296;8.874;2023-02-28T01:16:13;-3.30;99.90
13686;DHT22;6915;48.296;8.874;2023-02-28T01:18:42;-3.40;99.90
13686;DHT22;6915;48.296;8.874;2023-02-28T01:21:12;-3.40;99.90
13686;DHT22;6915;48.296;8.874;2023-02-28T01:23:42;-3.30;99.90
13686;DHT22;6915;48.296;8.874;2023-02-28T01:26:13;-3.50;99.90
13686;DHT22;6915;48.296;8.874;2023-02-28T01:28:44;-3.60;99.90
13686;DHT22;6915;48.296;8.874;2023-02-28T01:31:14;-3.50;99.90
13686;DHT22;6915;48.296;8.874;2023-02-28T01:33:43;-3.50;99.90
13686;DHT22;6915;48.296;8.874;2023-02-28T01:36:14;-3.50;99.90
13686;DHT22;6915;48.296;8.874;2023-02-28T01:38:46;-3.60;99.90
13686;DHT22;6915;48.296;8.874;2023-02-28T01:41:19;-3.70;99.90
13686;DHT22;6915;48.296;8.874;2023-02-28T01:43:56;-3.70;99.90
13686;DHT22;6915;48.296;8.874;2023-02-28T01:46:26;-3.70;99.90
13686;DHT22;6915;48.296;8.874;2023-02-28T01:48:58;-3.70;99.90
13686;DHT22;6915;48.296;8.874;2023-02-28T01:51:31;-3.70;99.90
13686;DHT22;6915;48.296;8.874;2023-02-28T01:54:03;-3.60;99.90
13686;DHT22;6915;48.296;8.874;2023-02-28T01:56:35;-3.80;99.90
13686;DHT22;6915;48.296;8.874;2023-02-28T01:59:06;-3.80;99.90
13686;DHT22;6915;48.296;8.874;2023-02-28T02:01:35;-3.80;99.90
13686;DHT22;6915;48.296;8.874;2023-02-28T02:04:04;-3.80;99.90
13686;DHT22;6915;48.296;8.874;2023-02-28T02:06:36;-3.80;99.90
13686;DHT22;6915;48.296;8.874;2023-02-28T02:09:05;-3.70;99.90
13686;DHT22;6915;48.296;8.874;2023-02-28T02:11:36;-3.90;99.90
13686;DHT22;6915;48.296;8.874;2023-02-28T02:14:38;-3.90;99.90
13686;DHT22;6915;48.296;8.874;2023-02-28T02:17:19;-3.90;99.90
13686;DHT22;6915;48.296;8.874;2023-02-28T02:23:26;-3.90;99.90
13686;DHT22;6915;48.296;8.874;2023-02-28T02:26:01;-3.90;99.90
13686;DHT22;6915;48.296;8.874;2023-02-28T02:28:52;-3.90;99.90
13686;DHT22;6915;48.296;8.874;2023-02-28T02:31:48;-3.90;99.90
13686;DHT22;6915;48.296;8.874;2023-02-28T02:34:42;-3.90;99.90
13686;DHT22;6915;48.296;8.874;2023-02-28T02:37:29;-4.00;99.90
13686;DHT22;6915;48.296;8.874;2023-02-28T02:40:04;-4.00;99.90
13686;DHT22;6915;48.296;8.874;2023-02-28T02:42:39;-3.90;99.90
13686;DHT22;6915;48.296;8.874;2023-02-28T02:45:12;-4.00;99.90
13686;DHT22;6915;48.296;8.874;2023-02-28T02:47:43;-4.00;99.90
13686;DHT22;6915;48.296;8.874;2023-02-28T02:50:15;-3.90;99.90
13686;DHT22;6915;48.296;8.874;2023-02-28T02:52:47;-4.00;99.90
13686;DHT22;6915;48.296;8.874;2023-02-28T02:55:19;-4.00;99.90
13686;DHT22;6915;48.296;8.874;2023-02-28T02:57:51;-4.00;99.90
13686;DHT22;6915;48.296;8.874;2023-02-28T03:00:26;-4.00;99.90
13686;DHT22;6915;48.296;8.874;2023-02-28T03:02:56;-4.00;99.90
13686;DHT22;6915;48.296;8.874;2023-02-28T03:05:28;-4.00;99.90
13686;DHT22;6915;48.296;8.874;2023-02-28T03:08:01;-4.00;99.90
13686;DHT22;6915;48.296;8.874;2023-02-28T03:10:36;-4.00;99.90
13686;DHT22;6915;48.296;8.874;2023-02-28T03:16:34;-4.10;99.90
13686;DHT22;6915;48.296;8.874;2023-02-28T03:22:13;-4.10;99.90
13686;DHT22;6915;48.296;8.874;2023-02-28T03:24:48;-4.10;99.90
13686;DHT22;6915;48.296;8.874;2023-02-28T03:27:20;-4.10;99.90
13686;DHT22;6915;48.296;8.874;2023-02-28T03:29:54;-4.10;99.90
13686;DHT22;6915;48.296;8.874;2023-02-28T03:32:28;-4.10;99.90
13686;DHT22;6915;48.296;8.874;2023-02-28T03:34:58;-4.10;99.90
13686;DHT22;6915;48.296;8.874;2023-02-28T03:37:34;-4.10;99.90
13686;DHT22;6915;48.296;8.874;2023-02-28T03:40:08;-4.10;99.90
13686;DHT22;6915;48.296;8.874;2023-02-28T03:42:43;-4.10;99.90
13686;DHT22;6915;48.296;8.874;2023-02-28T03:45:15;-4.10;99.90
13686;DHT22;6915;48.296;8.874;2023-02-28T03:47:48;-4.10;99.90
13686;DHT22;6915;48.296;8.874;2023-02-28T03:50:20;-4.10;99.90
13686;DHT22;6915;48.296;8.874;2023-02-28T03:52:53;-4.10;99.90
13686;DHT22;6915;48.296;8.874;2023-02-28T03:55:28;-4.10;99.90
13686;DHT22;6915;48.296;8.874;2023-02-28T03:58:03;-4.10;99.90
13686;DHT22;6915;48.296;8.874;2023-02-28T04:00:37;-4.10;99.90
13686;DHT22;6915;48.296;8.874;2023-02-28T04:03:08;-4.10;99.90
13686;DHT22;6915;48.296;8.874;2023-02-28T04:06:00;-3.90;99.90
13686;DHT22;6915;48.296;8.874;2023-02-28T04:08:30;-4.00;99.90
13686;DHT22;6915;48.296;8.874;2023-02-28T04:11:03;-4.10;99.90
13686;DHT22;6915;48.296;8.874;2023-02-28T04:20:07;-4.20;99.90
13686;DHT22;6915;48.296;8.874;2023-02-28T04:22:43;-4.20;99.90
13686;DHT22;6915;48.296;8.874;2023-02-28T04:28:53;-4.20;99.90
13686;DHT22;6915;48.296;8.874;2023-02-28T04:44:25;-4.20;99.90
13686;DHT22;6915;48.296;8.874;2023-02-28T04:46:53;-4.20;99.90
13686;DHT22;6915;48.296;8.874;2023-02-28T04:49:24;-4.20;99.90
13686;DHT22;6915;48.296;8.874;2023-02-28T04:51:53;-4.20;99.90
13686;DHT22;6915;48.296;8.874;2023-02-28T04:54:23;-4.20;99.90
13686;DHT22;6915;48.296;8.874;2023-02-28T04:56:51;-4.20;99.90
13686;DHT22;6915;48.296;8.874;2023-02-28T04:59:20;-4.20;99.90
13686;DHT22;6915;48.296;8.874;2023-02-28T05:01:51;-4.20;99.90
13686;DHT22;6915;48.296;8.874;2023-02-28T05:04:20;-4.20;99.90
13686;DHT22;6915;48.296;8.874;2023-02-28T05:06:48;-4.20;99.90
13686;DHT22;6915;48.296;8.874;2023-02-28T05:09:17;-4.20;99.90
13686;DHT22;6915;48.296;8.874;2023-02-28T05:11:45;-4.00;99.90
13686;DHT22;6915;48.296;8.874;2023-02-28T05:14:15;-4.20;99.90
13686;DHT22;6915;48.296;8.874;2023-02-28T05:16:44;-4.20;99.90
13686;DHT22;6915;48.296;8.874;2023-02-28T05:19:14;-4.20;99.90
13686;DHT22;6915;48.296;8.874;2023-02-28T05:21:48;-4.10;99.90
13686;DHT22;6915;48.296;8.874;2023-02-28T05:24:18;-4.10;99.90
13686;DHT22;6915;48.296;8.874;2023-02-28T05:26:53;-4.10;99.90
13686;DHT22;6915;48.296;8.874;2023-02-28T05:29:22;-4.10;99.90
13686;DHT22;6915;48.296;8.874;2023-02-28T05:31:52;-4.10;99.90
13686;DHT22;6915;48.296;8.874;2023-02-28T05:34:22;-4.00;99.90
13686;DHT22;6915;48.296;8.874;2023-02-28T05:36:51;-3.90;99.90
13686;DHT22;6915;48.296;8.874;2023-02-28T05:39:19;-4.10;99.90
13686;DHT22;6915;48.296;8.874;2023-02-28T05:41:49;-4.10;99.90
13686;DHT22;6915;48.296;8.874;2023-02-28T05:44:19;-4.00;99.90
13686;DHT22;6915;48.296;8.874;2023-02-28T05:46:48;-4.00;99.90
13686;DHT22;6915;48.296;8.874;2023-02-28T05:49:18;-4.00;99.90
13686;DHT22;6915;48.296;8.874;2023-02-28T05:51:48;-4.00;99.90
13686;DHT22;6915;48.296;8.874;2023-02-28T05:54:19;-4.10;99.90
13686;DHT22;6915;48.296;8.874;2023-02-28T05:56:48;-4.00;99.90
13686;DHT22;6915;48.296;8.874;2023-02-28T05:59:18;-4.00;99.90
13686;DHT22;6915;48.296;8.874;2023-02-28T06:01:48;-3.90;99.90
13686;DHT22;6915;48.296;8.874;2023-02-28T06:04:19;-3.80;99.90
13686;DHT22;6915;48.296;8.874;2023-02-28T06:06:50;-4.00;99.90
13686;DHT22;6915;48.296;8.874;2023-02-28T06:09:19;-4.00;99.90
13686;DHT22;6915;48.296;8.874;2023-02-28T06:11:50;-3.80;99.90
13686;DHT22;6915;48.296;8.874;2023-02-28T06:14:20;-3.90;99.90
13686;DHT22;6915;48.296;8.874;2023-02-28T06:16:51;-3.90;99.90
13686;DHT22;6915;48.296;8.874;2023-02-28T06:19:20;-3.90;99.90
13686;DHT22;6915;48.296;8.874;2023-02-28T06:21:52;-3.90;99.90
13686;DHT22;6915;48.296;8.874;2023-02-28T06:24:24;-3.90;99.90
13686;DHT22;6915;48.296;8.874;2023-02-28T06:26:55;-3.80;99.90
13686;DHT22;6915;48.296;8.874;2023-02-28T06:29:29;-3.90;99.90
13686;DHT22;6915;48.296;8.874;2023-02-28T06:32:18;-3.80;99.90
13686;DHT22;6915;48.296;8.874;2023-02-28T06:34:49;-3.80;99.90
13686;DHT22;6915;48.296;8.874;2023-02-28T06:37:20;-3.70;99.90
13686;DHT22;6915;48.296;8.874;2023-02-28T06:39:49;-3.80;99.90
13686;DHT22;6915;48.296;8.874;2023-02-28T06:42:17;-3.80;99.90
13686;DHT22;6915;48.296;8.874;2023-02-28T06:44:47;-3.70;99.90
13686;DHT22;6915;48.296;8.874;2023-02-28T06:47:15;-3.70;99.90
13686;DHT22;6915;48.296;8.874;2023-02-28T06:49:46;-3.70;99.90
13686;DHT22;6915;48.296;8.874;2023-02-28T06:52:15;-3.70;99.90
13686;DHT22;6915;48.296;8.874;2023-02-28T06:54:46;-3.70;99.90
13686;DHT22;6915;48.296;8.874;2023-02-28T06:57:15;-3.70;99.90
13686;DHT22;6915;48.296;8.874;2023-02-28T06:59:43;-3.60;99.90
13686;DHT22;6915;48.296;8.874;2023-02-28T07:02:12;-3.60;99.90
13686;DHT22;6915;48.296;8.874;2023-02-28T07:04:40;-3.60;99.90
13686;DHT22;6915;48.296;8.874;2023-02-28T07:07:11;-3.50;99.90
13686;DHT22;6915;48.296;8.874;2023-02-28T07:09:41;-3.50;99.90
13686;DHT22;6915;48.296;8.874;2023-02-28T07:12:11;-3.50;99.90
13686;DHT22;6915;48.296;8.874;2023-02-28T07:14:39;-3.40;99.90
13686;DHT22;6915;48.296;8.874;2023-02-28T07:17:08;-3.40;99.90
13686;DHT22;6915;48.296;8.874;2023-02-28T07:19:41;-3.40;99.90
13686;DHT22;6915;48.296;8.874;2023-02-28T07:22:10;-3.30;99.90
13686;DHT22;6915;48.296;8.874;2023-02-28T07:24:39;-3.10;99.90
13686;DHT22;6915;48.296;8.874;2023-02-28T07:27:07;-3.20;99.90
13686;DHT22;6915;48.296;8.874;2023-02-28T07:29:37;-3.20;99.90
13686;DHT22;6915;48.296;8.874;2023-02-28T07:32:06;-3.10;99.90
13686;DHT22;6915;48.296;8.874;2023-02-28T07:34:35;-3.10;99.90
13686;DHT22;6915;48.296;8.874;2023-02-28T07:37:04;-3.00;99.90
13686;DHT22;6915;48.296;8.874;2023-02-28T07:39:32;-3.00;99.90
13686;DHT22;6915;48.296;8.874;2023-02-28T07:42:01;-2.90;99.90
13686;DHT22;6915;48.296;8.874;2023-02-28T07:44:32;-2.70;99.90
13686;DHT22;6915;48.296;8.874;2023-02-28T07:47:02;-2.90;99.90
13686;DHT22;6915;48.296;8.874;2023-02-28T07:49:30;-2.90;99.90
13686;DHT22;6915;48.296;8.874;2023-02-28T07:51:59;-2.80;99.90
13686;DHT22;6915;48.296;8.874;2023-02-28T07:54:28;-2.80;99.90
13686;DHT22;6915;48.296;8.874;2023-02-28T07:56:57;-2.80;99.90
13686;DHT22;6915;48.296;8.874;2023-02-28T07:59:25;-2.50;99.90
13686;DHT22;6915;48.296;8.874;2023-02-28T08:01:54;-2.70;99.90
13686;DHT22;6915;48.296;8.874;2023-02-28T08:04:28;-2.60;99.90
13686;DHT22;6915;48.296;8.874;2023-02-28T08:06:59;-2.40;99.90
13686;DHT22;6915;48.296;8.874;2023-02-28T08:09:28;-2.40;99.90
13686;DHT22;6915;48.296;8.874;2023-02-28T08:11:57;-2.30;99.90
13686;DHT22;6915;48.296;8.874;2023-02-28T08:14:26;-2.10;99.90
13686;DHT22;6915;48.296;8.874;2023-02-28T08:16:54;-2.20;99.90
13686;DHT22;6915;48.296;8.874;2023-02-28T08:19:23;-2.20;99.90
13686;DHT22;6915;48.296;8.874;2023-02-28T08:21:53;-2.20;99.90
13686;DHT22;6915;48.296;8.874;2023-02-28T08:24:22;-2.10;99.90
13686;DHT22;6915;48.296;8.874;2023-02-28T08:26:51;-2.10;99.90
13686;DHT22;6915;48.296;8.874;2023-02-28T08:29:20;-2.20;99.90
13686;DHT22;6915;48.296;8.874;2023-02-28T08:31:48;-2.10;99.90
13686;DHT22;6915;48.296;8.874;2023-02-28T08:34:18;-1.90;99.90
13686;DHT22;6915;48.296;8.874;2023-02-28T08:36:47;-2.00;99.90
13686;DHT22;6915;48.296;8.874;2023-02-28T08:39:17;-2.00;99.90
13686;DHT22;6915;48.296;8.874;2023-02-28T08:41:47;-2.00;99.90
13686;DHT22;6915;48.296;8.874;2023-02-28T08:44:16;-2.00;99.90
13686;DHT22;6915;48.296;8.874;2023-02-28T08:46:44;-2.00;99.90
13686;DHT22;6915;48.296;8.874;2023-02-28T08:49:13;-2.00;99.90
13686;DHT22;6915;48.296;8.874;2023-02-28T08:51:42;-2.00;99.90
13686;DHT22;6915;48.296;8.874;2023-02-28T08:54:11;-1.90;99.90
13686;DHT22;6915;48.296;8.874;2023-02-28T08:56:41;-2.00;99.90
13686;DHT22;6915;48.296;8.874;2023-02-28T08:59:11;-1.90;99.90
13686;DHT22;6915;48.296;8.874;2023-02-28T09:01:40;-1.90;99.90
13686;DHT22;6915;48.296;8.874;2023-02-28T09:04:10;-1.80;99.90
13686;DHT22;6915;48.296;8.874;2023-02-28T09:06:40;-1.80;99.90
13686;DHT22;6915;48.296;8.874;2023-02-28T09:09:09;-1.90;99.90
13686;DHT22;6915;48.296;8.874;2023-02-28T09:11:38;-1.80;99.90
13686;DHT22;6915;48.296;8.874;2023-02-28T09:14:09;-1.80;99.90
13686;DHT22;6915;48.296;8.874;2023-02-28T09:16:37;-1.70;99.90
13686;DHT22;6915;48.296;8.874;2023-02-28T09:19:06;-1.60;99.90
13686;DHT22;6915;48.296;8.874;2023-02-28T09:21:38;-1.70;99.90
13686;DHT22;6915;48.296;8.874;2023-02-28T09:24:08;-1.70;99.90
13686;DHT22;6915;48.296;8.874;2023-02-28T09:26:39;-1.80;99.90
13686;DHT22;6915;48.296;8.874;2023-02-28T09:29:09;-1.70;99.90
13686;DHT22;6915;48.296;8.874;2023-02-28T09:31:38;-1.70;99.90
13686;DHT22;6915;48.296;8.874;2023-02-28T09:34:07;-1.70;99.90
13686;DHT22;6915;48.296;8.874;2023-02-28T09:36:36;-1.70;99.90
13686;DHT22;6915;48.296;8.874;2023-02-28T09:39:05;-1.70;99.90
13686;DHT22;6915;48.296;8.874;2023-02-28T09:41:42;-1.60;99.90
13686;DHT22;6915;48.296;8.874;2023-02-28T09:44:19;-1.60;99.90
13686;DHT22;6915;48.296;8.874;2023-02-28T09:46:51;-1.60;99.90
13686;DHT22;6915;48.296;8.874;2023-02-28T09:49:28;-1.50;99.90
13686;DHT22;6915;48.296;8.874;2023-02-28T09:52:02;-1.60;99.90
13686;DHT22;6915;48.296;8.874;2023-02-28T09:54:32;-1.50;99.90
13686;DHT22;6915;48.296;8.874;2023-02-28T09:57:05;-1.40;99.90
13686;DHT22;6915;48.296;8.874;2023-02-28T09:59:41;-1.30;99.90
13686;DHT22;6915;48.296;8.874;2023-02-28T10:02:20;-1.30;99.90
13686;DHT22;6915;48.296;8.874;2023-02-28T10:04:54;-1.10;99.90
13686;DHT22;6915;48.296;8.874;2023-02-28T10:07:33;-1.30;99.90
13686;DHT22;6915;48.296;8.874;2023-02-28T10:10:13;-1.30;99.90
13686;DHT22;6915;48.296;8.874;2023-02-28T10:12:46;-1.40;99.90
13686;DHT22;6915;48.296;8.874;2023-02-28T10:15:17;-1.30;99.90
13686;DHT22;6915;48.296;8.874;2023-02-28T10:17:47;-1.30;99.90
13686;DHT22;6915;48.296;8.874;2023-02-28T10:20:20;-1.30;99.90
13686;DHT22;6915;48.296;8.874;2023-02-28T10:22:56;-1.30;99.90
13686;DHT22;6915;48.296;8.874;2023-02-28T10:25:28;-1.20;99.90
13686;DHT22;6915;48.296;8.874;2023-02-28T10:28:01;-1.20;99.90
13686;DHT22;6915;48.296;8.874;2023-02-28T10:30:37;-1.10;99.90
13686;DHT22;6915;48.296;8.874;2023-02-28T10:33:08;-1.20;99.90
13686;DHT22;6915;48.296;8.874;2023-02-28T10:35:43;-1.10;99.90
13686;DHT22;6915;48.296;8.874;2023-02-28T10:38:16;-1.10;99.90
13686;DHT22;6915;48.296;8.874;2023-02-28T10:40:45;-1.00;99.90
13686;DHT22;6915;48.296;8.874;2023-02-28T10:43:24;-1.00;99.90
13686;DHT22;6915;48.296;8.874;2023-02-28T10:45:59;-1.00;99.90
13686;DHT22;6915;48.296;8.874;2023-02-28T10:48:32;-1.00;99.90
13686;DHT22;6915;48.296;8.874;2023-02-28T10:51:01;-0.90;99.90
13686;DHT22;6915;48.296;8.874;2023-02-28T10:53:35;-1.00;99.90
13686;DHT22;6915;48.296;8.874;2023-02-28T10:56:13;-0.90;99.90
13686;DHT22;6915;48.296;8.874;2023-02-28T16:20:22;2.30;99.90
13686;DHT22;6915;48.296;8.874;2023-02-28T16:22:52;2.30;99.90
13686;DHT22;6915;48.296;8.874;2023-02-28T16:25:25;2.30;99.90
13686;DHT22;6915;48.296;8.874;2023-02-28T16:27:56;2.20;99.90
13686;DHT22;6915;48.296;8.874;2023-02-28T16:30:29;2.20;99.90
13686;DHT22;6915;48.296;8.874;2023-02-28T18:03:36;0.10;99.90
13686;DHT22;6915;48.296;8.874;2023-02-28T18:06:07;0.00;99.90
13686;DHT22;6915;48.296;8.874;2023-02-28T18:08:39;-0.10;99.90
13686;DHT22;6915;48.296;8.874;2023-02-28T18:11:08;-0.20;99.90
13686;DHT22;6915;48.296;8.874;2023-02-28T18:13:43;-0.40;99.90
13686;DHT22;6915;48.296;8.874;2023-02-28T18:16:13;-0.40;99.90
13686;DHT22;6915;48.296;8.874;2023-02-28T18:18:44;-0.50;99.90
13686;DHT22;6915;48.296;8.874;2023-02-28T18:21:18;-0.60;99.90
13686;DHT22;6915;48.296;8.874;2023-02-28T18:23:46;-0.60;99.90
13686;DHT22;6915;48.296;8.874;2023-02-28T18:26:17;-0.60;99.90
13686;DHT22;6915;48.296;8.874;2023-02-28T18:28:47;-0.50;99.90
13686;DHT22;6915;48.296;8.874;2023-02-28T18:31:18;-0.50;99.90
13686;DHT22;6915;48.296;8.874;2023-02-28T18:33:51;-0.50;99.90
13686;DHT22;6915;48.296;8.874;2023-02-28T18:36:21;-0.50;99.90
13686;DHT22;6915;48.296;8.874;2023-02-28T18:38:51;-0.50;99.90
13686;DHT22;6915;48.296;8.874;2023-02-28T18:41:23;-0.50;99.90
13686;DHT22;6915;48.296;8.874;2023-02-28T18:43:52;-0.70;99.90
13686;DHT22;6915;48.296;8.874;2023-02-28T18:46:23;-0.80;99.90
13686;DHT22;6915;48.296;8.874;2023-02-28T18:49:10;-0.80;99.90
13686;DHT22;6915;48.296;8.874;2023-02-28T18:51:39;-0.70;99.90
13686;DHT22;6915;48.296;8.874;2023-02-28T21:56:02;-3.50;99.90
13686;DHT22;6915;48.296;8.874;2023-02-28T21:58:33;-3.40;99.90
13686;DHT22;6915;48.296;8.874;2023-02-28T22:01:06;-3.40;99.90
13686;DHT22;6915;48.296;8.874;2023-02-28T22:03:36;-3.40;99.90
13686;DHT22;6915;48.296;8.874;2023-02-28T22:06:09;-3.40;99.90
13686;DHT22;6915;48.296;8.874;2023-02-28T22:08:37;-3.20;99.90
13686;DHT22;6915;48.296;8.874;2023-02-28T22:11:09;-3.20;99.90
13686;DHT22;6915;48.296;8.874;2023-02-28T22:13:38;-3.20;99.90
13686;DHT22;6915;48.296;8.874;2023-02-28T22:16:09;-3.10;99.90
13686;DHT22;6915;48.296;8.874;2023-02-28T22:18:40;-3.10;99.90
13686;DHT22;6915;48.296;8.874;2023-02-28T22:21:10;-3.00;99.90
13686;DHT22;6915;48.296;8.874;2023-02-28T22:23:41;-3.20;99.90
13686;DHT22;6915;48.296;8.874;2023-02-28T22:26:13;-3.20;99.90
13686;DHT22;6915;48.296;8.874;2023-02-28T22:28:43;-3.20;99.90
13686;DHT22;6915;48.296;8.874;2023-02-28T22:31:20;-3.30;99.90
13686;DHT22;6915;48.296;8.874;2023-02-28T22:33:52;-3.20;99.90
13686;DHT22;6915;48.296;8.874;2023-02-28T22:36:22;-3.40;99.90
13686;DHT22;6915;48.296;8.874;2023-02-28T22:38:51;-3.50;99.90
13686;DHT22;6915;48.296;8.874;2023-02-28T22:41:23;-3.50;99.90
13686;DHT22;6915;48.296;8.874;2023-02-28T22:43:55;-3.50;99.90
13686;DHT22;6915;48.296;8.874;2023-02-28T22:46:26;-3.50;99.90
13686;DHT22;6915;48.296;8.874;2023-02-28T22:48:56;-3.60;99.90
13686;DHT22;6915;48.296;8.874;2023-02-28T22:51:26;-3.60;99.90
13686;DHT22;6915;48.296;8.874;2023-02-28T22:54:07;-3.70;99.90
13686;DHT22;6915;48.296;8.874;2023-02-28T22:56:38;-3.80;99.90
13686;DHT22;6915;48.296;8.874;2023-02-28T22:59:08;-3.80;99.90
13686;DHT22;6915;48.296;8.874;2023-02-28T23:01:40;-3.80;99.90
13686;DHT22;6915;48.296;8.874;2023-02-28T23:04:11;-3.90;99.90
13686;DHT22;6915;48.296;8.874;2023-02-28T23:06:41;-3.80;99.90
13686;DHT22;6915;48.296;8.874;2023-02-28T23:09:13;-4.10;99.90
13686;DHT22;6915;48.296;8.874;2023-02-28T23:11:47;-4.00;99.90
13686;DHT22;6915;48.296;8.874;2023-02-28T23:14:18;-4.10;99.90
13686;DHT22;6915;48.296;8.874;2023-02-28T23:16:49;-4.00;99.90
13686;DHT22;6915;48.296;8.874;2023-02-28T23:19:20;-4.10;99.90
13686;DHT22;6915;48.296;8.874;2023-02-28T23:21:49;-4.10;99.90
13686;DHT22;6915;48.296;8.874;2023-02-28T23:24:21;-4.30;99.90
13686;DHT22;6915;48.296;8.874;2023-02-28T23:26:53;-4.50;99.90
13686;DHT22;6915;48.296;8.874;2023-02-28T23:29:24;-4.30;99.90
13686;DHT22;6915;48.296;8.874;2023-02-28T23:31:54;-4.40;99.90
13686;DHT22;6915;48.296;8.874;2023-02-28T23:34:23;-4.50;99.90
13686;DHT22;6915;48.296;8.874;2023-02-28T23:36:58;-4.50;99.90
13686;DHT22;6915;48.296;8.874;2023-02-28T23:39:28;-4.50;99.90
13686;DHT22;6915;48.296;8.874;2023-02-28T23:41:59;-4.60;99.90
13686;DHT22;6915;48.296;8.874;2023-02-28T23:44:28;-4.50;99.90
13686;DHT22;6915;48.296;8.874;2023-02-28T23:46:58;-4.60;99.90
13686;DHT22;6915;48.296;8.874;2023-02-28T23:49:27;-4.60;99.90
13686;DHT22;6915;48.296;8.874;2023-02-28T23:51:56;-4.70;99.90
13686;DHT22;6915;48.296;8.874;2023-02-28T23:54:25;-4.60;99.90
13686;DHT22;6915;48.296;8.874;2023-02-28T23:56:54;-4.60;99.90
13686;DHT22;6915;48.296;8.874;2023-02-28T23:59:25;-4.60;99.90
